Time;durP1;ratioP1;P1;durP2;ratioP2;P2;SDS_P1;SDS_P2;PMS_P1;PMS_P2;Temp;Humidity;BMP_temperature;BMP_pressure;BME280_temperature;BME280_humidity;BME280_pressure;Samples;Min_cycle;Max_cycle;Signal;HPM_P1;HPM_P2
2022/12/05 00:00:07;;;;;;;15.07;8.68;;;;;;;4.63;87.41;94325.09;5091997;28;20074;-34
2022/12/05 00:02:33;;;;;;;14.18;8.25;;;;;;;4.53;87.73;94319.81;5091536;28;20039;-34
2022/12/05 00:04:59;;;;;;;21.17;8.95;;;;;;;4.45;88.14;94312.53;5091922;28;20031;-34
2022/12/05 00:07:24;;;;;;;14.25;8.88;;;;;;;4.50;87.83;94317.31;5091802;28;20028;-34
2022/12/05 00:09:50;;;;;;;18.30;8.52;;;;;;;4.55;87.92;94317.31;5091740;28;20036;-34
2022/12/05 00:12:15;;;;;;;16.88;8.18;;;;;;;4.58;87.79;94313.63;5091591;28;20054;-34
2022/12/05 00:14:41;;;;;;;13.40;8.10;;;;;;;4.67;87.68;94314.66;5091568;28;20023;-34
2022/12/05 00:17:06;;;;;;;13.88;7.57;;;;;;;4.75;87.38;94321.16;5091671;28;20032;-34
2022/12/05 00:19:32;;;;;;;14.45;8.38;;;;;;;4.79;86.94;94313.47;5091603;28;20488;-34
2022/12/05 00:21:57;;;;;;;12.45;6.95;;;;;;;4.65;86.65;94309.69;5091252;28;20028;-34
2022/12/05 00:24:23;;;;;;;15.02;8.27;;;;;;;4.74;86.40;94308.72;5091345;28;20065;-35
2022/12/05 00:26:48;;;;;;;12.27;7.82;;;;;;;4.70;86.25;94303.47;5091165;28;20476;-34
2022/12/05 00:29:14;;;;;;;15.75;8.20;;;;;;;4.63;86.52;94292.25;5091101;28;20071;-34
2022/12/05 00:31:39;;;;;;;16.15;8.65;;;;;;;4.74;86.40;94300.53;5073039;28;20024;-34
2022/12/05 00:34:05;;;;;;;13.48;8.20;;;;;;;4.75;86.67;94300.03;5091046;28;20020;-34
2022/12/05 00:36:32;;;;;;;14.25;8.52;;;;;;;4.78;86.86;94309.25;5091255;28;20507;-34
2022/12/05 00:38:59;;;;;;;15.60;8.70;;;;;;;4.75;86.92;94297.28;5090497;28;20124;-34
2022/12/05 00:41:26;;;;;;;17.70;8.20;;;;;;;4.78;86.51;94298.31;5090862;28;20090;-34
2022/12/05 00:43:53;;;;;;;15.05;8.20;;;;;;;4.72;85.51;94270.19;5090761;28;20043;-34
2022/12/05 00:46:22;;;;;;;13.10;7.63;;;;;;;4.82;85.43;94293.34;5090763;28;20064;-34
2022/12/05 00:48:47;;;;;;;;;;;;;;;4.83;84.86;94292.84;5091212;28;20071;-34
2022/12/05 00:51:18;;;;;;;15.98;8.35;;;;;;;4.65;85.90;94301.47;5090580;28;19955;-34
2022/12/05 00:53:44;;;;;;;12.90;6.43;;;;;;;4.66;86.34;94297.50;5090732;28;20028;-34
2022/12/05 00:56:13;;;;;;;12.30;7.03;;;;;;;4.65;86.37;94296.00;5090994;28;20464;-34
2022/12/05 00:58:38;;;;;;;13.45;7.25;;;;;;;4.60;86.33;94283.81;5090805;28;20020;-34
2022/12/05 01:01:12;;;;;;;12.88;6.68;;;;;;;4.75;86.27;94288.31;5090601;28;20024;-34
2022/12/05 01:03:38;;;;;;;12.68;6.50;;;;;;;4.51;86.39;94259.38;5090923;28;20096;-34
2022/12/05 01:06:05;;;;;;;18.85;7.85;;;;;;;4.32;86.91;94263.75;5090778;28;20031;-34
2022/12/05 01:08:32;;;;;;;10.10;6.95;;;;;;;4.51;87.47;94296.91;5090729;28;20131;-34
2022/12/05 01:10:57;;;;;;;12.77;7.05;;;;;;;4.52;87.71;94295.69;5090732;28;20477;-34
2022/12/05 01:13:24;;;;;;;12.63;8.02;;;;;;;4.50;87.89;94290.69;5090448;28;20046;-34
2022/12/05 01:15:50;;;;;;;14.00;7.82;;;;;;;4.55;88.07;94294.69;5090891;28;20048;-34
2022/12/05 01:18:16;;;;;;;12.95;7.13;;;;;;;4.59;87.24;94295.25;5090493;28;20058;-34
2022/12/05 01:20:42;;;;;;;11.88;6.93;;;;;;;4.63;86.79;94303.19;5072480;28;20027;-34
2022/12/05 01:23:08;;;;;;;12.63;7.20;;;;;;;4.57;86.90;94301.19;5090377;28;20028;-34
2022/12/05 01:25:34;;;;;;;14.40;8.15;;;;;;;4.51;87.58;94300.41;5090210;28;20031;-34
2022/12/05 01:27:59;;;;;;;12.38;7.28;;;;;;;4.49;87.68;94293.91;5090498;28;20107;-34
2022/12/05 01:30:25;;;;;;;13.77;7.13;;;;;;;4.47;87.87;94288.94;5089949;28;20111;-34
2022/12/05 01:32:50;;;;;;;11.18;7.07;;;;;;;4.43;88.05;94284.94;5090229;28;20087;-34
2022/12/05 01:35:16;;;;;;;12.68;8.00;;;;;;;4.43;88.42;94277.50;5090182;28;20028;-34
2022/12/05 01:37:41;;;;;;;14.48;7.53;;;;;;;4.56;87.88;94282.53;5090476;28;20044;-34
2022/12/05 01:40:07;;;;;;;15.65;8.55;;;;;;;4.55;87.83;94281.03;5090119;28;20548;-34
2022/12/05 01:42:33;;;;;;;15.57;7.72;;;;;;;4.51;88.02;94283.25;5090358;28;20036;-34
2022/12/05 01:45:01;;;;;;;14.15;7.90;;;;;;;4.51;87.91;94284.00;5090444;28;20400;-34
2022/12/05 01:47:28;;;;;;;17.42;8.57;;;;;;;4.13;89.05;94262.66;5090009;28;20032;-34
2022/12/05 01:49:53;;;;;;;16.27;9.45;;;;;;;4.33;89.81;94278.91;5072950;28;20028;-34
2022/12/05 01:52:21;;;;;;;15.25;7.93;;;;;;;4.33;89.93;94275.44;5076159;28;20093;-34
2022/12/05 01:54:50;;;;;;;16.50;8.30;;;;;;;4.43;89.64;94282.22;5076107;28;20514;-34
2022/12/05 01:57:15;;;;;;;13.73;7.68;;;;;;;4.47;88.46;94280.00;5094381;28;20020;-34
2022/12/05 01:59:45;;;;;;;13.98;7.47;;;;;;;4.40;88.53;94272.25;5076343;28;20488;-34
2022/12/05 02:02:11;;;;;;;15.45;8.27;;;;;;;4.36;88.99;94272.47;5094000;28;20063;-34
2022/12/05 02:04:47;;;;;;;13.13;7.55;;;;;;;4.39;88.30;94268.03;5075788;28;20059;-34
2022/12/05 02:07:13;;;;;;;16.63;8.15;;;;;;;4.35;88.50;94265.50;5093936;28;20703;-34
2022/12/05 02:09:38;;;;;;;16.17;7.63;;;;;;;4.36;88.70;94269.00;5093804;28;20057;-34
2022/12/05 02:12:04;;;;;;;15.15;8.02;;;;;;;4.41;88.49;94271.78;5094094;28;20418;-34
2022/12/05 02:14:54;;;;;;;16.52;8.23;;;;;;;4.42;88.81;94269.75;5093834;28;20039;-34
2022/12/05 02:17:50;;;;;;;12.40;7.40;;;;;;;4.53;88.77;94262.38;5093743;28;20032;-34
2022/12/05 02:20:53;;;;;;;14.85;8.25;;;;;;;4.68;88.02;94261.47;5093761;28;20028;-34
2022/12/05 02:23:23;;;;;;;11.82;7.15;;;;;;;4.65;87.33;94262.44;5093421;28;20028;-34
2022/12/05 02:26:00;;;;;;;15.75;9.38;;;;;;;4.68;87.55;94256.00;5093475;28;20458;-34
2022/12/05 02:28:44;;;;;;;17.15;9.55;;;;;;;4.73;87.72;94258.75;5093599;28;20523;-34
2022/12/05 02:31:50;;;;;;;20.00;9.73;;;;;;;4.73;87.58;94256.00;5093379;28;20100;-34
2022/12/05 02:34:39;;;;;;;12.20;7.97;;;;;;;4.80;87.32;94263.00;5010885;28;20555;-34
2022/12/05 02:37:32;;;;;;;14.95;8.18;;;;;;;4.74;86.93;94259.50;5072304;28;20174;-34
2022/12/05 02:40:36;;;;;;;14.27;8.27;;;;;;;4.78;87.02;94268.97;5092622;28;20028;-34
2022/12/05 02:43:15;;;;;;;12.35;7.18;;;;;;;4.83;86.39;94265.47;5093079;28;20028;-34
2022/12/05 02:45:41;;;;;;;14.95;6.95;;;;;;;4.82;84.82;94268.72;5075129;28;20028;-34
2022/12/05 02:48:08;;;;;;;12.43;6.97;;;;;;;4.75;85.04;94255.50;5093047;28;20462;-34
2022/12/05 02:50:35;;;;;;;12.32;6.93;;;;;;;4.60;85.56;94258.44;5075190;28;20024;-34
2022/12/05 02:53:06;;;;;;;13.25;7.00;;;;;;;4.63;85.79;94264.91;5058710;28;20023;-34
2022/12/05 02:55:32;;;;;;;15.52;7.95;;;;;;;4.56;86.48;94247.75;5074988;28;20019;-34
2022/12/05 02:58:02;;;;;;;14.30;7.60;;;;;;;4.66;85.68;94258.47;5092936;28;20027;-34
2022/12/05 03:00:28;;;;;;;9.57;7.00;;;;;;;4.56;85.99;94257.91;5074270;28;20031;-34
2022/12/05 03:02:57;;;;;;;12.77;7.18;;;;;;;4.47;86.47;94252.66;5092782;28;20027;-34
2022/12/05 03:06:04;;;;;;;17.77;7.32;;;;;;;4.55;86.36;94248.97;5057992;28;20431;-34
2022/12/05 03:08:39;;;;;;;12.93;7.72;;;;;;;4.46;86.78;94251.91;5092613;28;20028;-34
2022/12/05 03:11:05;;;;;;;15.15;7.78;;;;;;;4.36;86.95;94244.38;5074875;28;20028;-34
2022/12/05 03:13:44;;;;;;;16.40;8.07;;;;;;;4.17;87.86;94233.13;5074502;28;20016;-34
2022/12/05 03:16:48;;;;;;;15.15;8.45;;;;;;;4.38;88.01;94241.91;5074614;28;20027;-34
2022/12/05 03:19:17;;;;;;;15.25;8.13;;;;;;;4.28;88.62;94237.88;5088359;28;20116;-34
2022/12/05 03:21:51;;;;;;;16.05;8.85;;;;;;;4.40;87.81;94245.66;5074585;28;20144;-34
2022/12/05 03:24:17;;;;;;;16.48;8.55;;;;;;;4.24;87.71;94243.59;5074350;28;20032;-34
2022/12/05 03:26:52;;;;;;;18.90;7.75;;;;;;;4.29;87.72;94242.84;5074000;28;20111;-34
2022/12/05 03:29:17;;;;;;;15.18;7.63;;;;;;;4.27;88.11;94244.59;5092136;28;20047;-34
2022/12/05 03:32:04;;;;;;;19.58;8.90;;;;;;;4.36;88.02;94250.59;5092495;28;20036;-34
2022/12/05 03:34:51;;;;;;;14.95;8.13;;;;;;;4.43;87.85;94247.41;5092143;28;20028;-34
2022/12/05 03:37:31;;;;;;;14.00;7.70;;;;;;;4.47;87.16;94245.19;5092053;28;20032;-34
2022/12/05 03:40:19;;;;;;;14.90;7.35;;;;;;;4.53;86.61;94240.50;5073990;28;20031;-34
2022/12/05 03:42:51;;;;;;;16.40;8.88;;;;;;;4.59;86.54;94244.00;5074316;28;20024;-34
2022/12/05 03:45:22;;;;;;;16.52;7.55;;;;;;;4.47;86.33;94226.06;5092343;28;20024;-34
2022/12/05 03:48:23;;;;;;;15.20;7.95;;;;;;;4.59;85.95;94241.28;5074191;28;20048;-34
2022/12/05 03:50:49;;;;;;;14.35;7.90;;;;;;;4.61;85.33;94243.53;5060447;28;20052;-34
2022/12/05 03:53:27;;;;;;;17.95;8.13;;;;;;;4.48;85.45;94241.22;5073777;28;20115;-34
2022/12/05 03:55:58;;;;;;;20.67;8.50;;;;;;;4.39;86.50;94246.91;5074133;28;20393;-34
2022/12/05 03:58:34;;;;;;;19.63;10.25;;;;;;;4.28;86.95;94235.91;5074044;28;20081;-34
2022/12/05 04:01:00;;;;;;;17.98;9.25;;;;;;;4.46;86.79;94251.16;5073997;28;20031;-34
2022/12/05 04:03:38;;;;;;;17.35;9.07;;;;;;;4.47;86.87;94253.41;5092006;28;20024;-34
2022/12/05 04:06:15;;;;;;;17.92;9.15;;;;;;;4.57;86.55;94245.72;5074189;28;20027;-34
2022/12/05 04:08:47;;;;;;;14.27;7.63;;;;;;;4.57;85.96;94254.69;5073529;28;20028;-34
2022/12/05 04:11:16;;;;;;;16.17;8.30;;;;;;;4.55;85.42;94248.97;5073784;28;20039;-34
2022/12/05 04:13:49;;;;;;;17.20;8.45;;;;;;;4.52;85.55;94257.41;5090539;28;20031;-34
2022/12/05 04:19:24;;;;;;;18.83;8.98;;;;;;;4.44;86.11;94250.91;5091781;28;20061;-34
2022/12/05 04:21:52;;;;;;;18.63;9.52;;;;;;;4.38;86.65;94250.88;5073580;28;20059;-34
2022/12/05 04:27:17;;;;;;;16.13;8.60;;;;;;;4.47;85.74;94253.41;5055982;28;20467;-34
2022/12/05 04:29:51;;;;;;;16.27;8.48;;;;;;;4.32;86.58;94252.06;5078213;28;20044;-34
2022/12/05 04:32:18;;;;;;;17.35;9.18;;;;;;;4.39;86.16;94252.38;5090968;28;20492;-34
2022/12/05 04:34:46;;;;;;;19.33;9.77;;;;;;;4.34;86.28;94255.06;5073016;28;20423;-34
2022/12/05 04:37:15;;;;;;;16.52;9.15;;;;;;;4.15;86.93;94262.91;5072980;28;20103;-34
2022/12/05 04:39:53;;;;;;;19.38;8.90;;;;;;;4.23;87.11;94255.75;5091049;28;20059;-34
2022/12/05 04:42:22;;;;;;;18.45;9.73;;;;;;;4.28;87.16;94248.81;5091183;28;20396;-34
2022/12/05 04:44:50;;;;;;;19.05;9.68;;;;;;;4.29;87.20;94253.78;5073114;28;20420;-34
2022/12/05 04:47:18;;;;;;;23.03;10.67;;;;;;;4.33;87.28;94254.31;5073077;28;20050;-34
2022/12/05 04:49:44;;;;;;;15.27;8.90;;;;;;;4.41;87.11;94258.09;5072907;28;20169;-34
2022/12/05 04:52:11;;;;;;;13.95;9.00;;;;;;;4.35;86.78;94257.31;5091164;28;20407;-34
2022/12/05 04:54:44;;;;;;;18.88;10.05;;;;;;;4.44;86.30;94253.66;5072979;28;20036;-34
2022/12/05 04:57:16;;;;;;;23.95;11.65;;;;;;;4.49;85.99;94253.66;5091022;28;20412;-34
2022/12/05 04:59:41;;;;;;;18.23;8.90;;;;;;;4.47;86.02;94253.41;5090929;28;20028;-34
2022/12/05 05:02:08;;;;;;;16.33;8.45;;;;;;;4.44;86.29;94257.09;5090542;28;20051;-34
2022/12/05 05:04:38;;;;;;;17.88;9.95;;;;;;;4.46;86.26;94260.09;5090723;28;20153;-34
2022/12/05 05:07:06;;;;;;;31.20;9.98;;;;;;;4.57;86.39;94260.16;5072761;28;20056;-34
2022/12/05 05:09:31;;;;;;;18.45;9.52;;;;;;;4.60;86.50;94263.91;5072790;28;20024;-34
2022/12/05 05:11:57;;;;;;;18.50;8.55;;;;;;;4.57;85.26;94264.88;5090426;28;20413;-34
2022/12/05 05:14:22;;;;;;;15.68;7.93;;;;;;;4.39;85.30;94265.28;5090651;28;20397;-34
2022/12/05 05:16:48;;;;;;;15.73;8.75;;;;;;;4.49;85.48;94264.59;5090712;28;20609;-34
2022/12/05 05:19:13;;;;;;;19.83;9.20;;;;;;;4.47;85.90;94267.06;5090377;28;20484;-34
2022/12/05 05:21:41;;;;;;;21.92;10.20;;;;;;;4.46;86.09;94267.56;5090623;28;20030;-34
2022/12/05 05:24:08;;;;;;;21.25;9.32;;;;;;;4.33;86.34;94248.13;5090046;28;20488;-34
2022/12/05 05:26:39;;;;;;;15.38;8.30;;;;;;;4.57;86.18;94273.06;5089878;28;20015;-34
2022/12/05 05:29:05;;;;;;;22.13;9.05;;;;;;;4.56;85.95;94280.56;5089868;28;20523;-34
2022/12/05 05:31:31;;;;;;;16.58;8.50;;;;;;;4.43;85.85;94268.53;5090296;28;20062;-34
2022/12/05 05:33:57;;;;;;;18.52;8.93;;;;;;;4.73;84.65;94288.06;5090493;28;20058;-34
2022/12/05 05:36:24;;;;;;;24.55;9.45;;;;;;;4.70;84.46;94291.81;5090482;28;20426;-34
2022/12/05 05:38:55;;;;;;;17.38;8.77;;;;;;;4.64;85.12;94294.50;5090509;28;20019;-34
2022/12/05 05:41:26;;;;;;;19.60;9.93;;;;;;;4.70;84.00;94286.34;5090268;28;20031;-34
2022/12/05 05:43:52;;;;;;;23.02;10.10;;;;;;;4.65;84.27;94296.00;5090231;28;20443;-34
2022/12/05 05:46:21;;;;;;;20.40;9.60;;;;;;;4.56;84.95;94305.16;5089960;28;20415;-34
2022/12/05 05:48:47;;;;;;;16.65;8.52;;;;;;;4.59;85.04;94308.91;5089999;28;20028;-34
2022/12/05 05:51:14;;;;;;;16.30;9.15;;;;;;;4.63;85.44;94305.94;5090123;28;20114;-34
2022/12/05 05:53:40;;;;;;;19.38;9.18;;;;;;;4.70;85.30;94305.47;5090005;28;20089;-34
2022/12/05 05:56:09;;;;;;;14.70;8.73;;;;;;;4.71;84.78;94304.22;5089925;28;20035;-34
2022/12/05 05:58:35;;;;;;;16.15;8.55;;;;;;;4.77;84.53;94313.19;5089907;28;20024;-34
2022/12/05 06:01:03;;;;;;;13.18;7.50;;;;;;;4.82;83.36;94307.03;5090019;28;20061;-34
2022/12/05 06:03:29;;;;;;;18.50;8.27;;;;;;;4.83;83.38;94311.28;5090311;28;20032;-34
2022/12/05 06:06:03;;;;;;;17.00;8.55;;;;;;;4.47;84.22;94283.47;5071904;28;21039;-34
2022/12/05 06:08:32;;;;;;;19.33;9.93;;;;;;;4.67;84.73;94309.94;5089836;28;20035;-34
2022/12/05 06:10:58;;;;;;;16.70;8.88;;;;;;;4.71;85.01;94317.91;5090144;28;20035;-34
2022/12/05 06:13:23;;;;;;;36.95;18.67;;;;;;;4.78;84.88;94320.19;5089770;28;20024;-34
2022/12/05 06:15:49;;;;;;;34.10;21.20;;;;;;;4.91;84.55;94313.03;5089825;28;20176;-34
2022/12/05 06:18:14;;;;;;;22.25;11.88;;;;;;;4.86;84.69;94311.03;5089985;28;20020;-34
2022/12/05 06:20:40;;;;;;;21.60;11.18;;;;;;;4.92;84.47;94313.78;5090015;28;20042;-34
2022/12/05 06:23:06;;;;;;;19.42;10.38;;;;;;;4.92;84.55;94313.78;5089752;28;20027;-34
2022/12/05 06:25:31;;;;;;;18.88;10.43;;;;;;;4.88;84.43;94313.25;5089649;28;20058;-34
2022/12/05 06:27:56;;;;;;;16.42;8.77;;;;;;;4.97;84.51;94315.78;5089711;28;20484;-34
2022/12/05 06:30:22;;;;;;;16.80;9.50;;;;;;;5.06;83.98;94316.34;5089269;28;20059;-34
2022/12/05 06:32:47;;;;;;;20.10;10.75;;;;;;;5.04;83.86;94316.09;5090051;28;20024;-34
2022/12/05 06:35:16;;;;;;;11.25;6.07;;;;;;;5.07;82.89;94312.34;5089773;28;20020;-34
2022/12/05 06:37:44;;;;;;;13.27;7.05;;;;;;;5.05;82.33;94317.56;5093327;28;20031;-34
2022/12/05 06:40:14;;;;;;;18.00;8.95;;;;;;;4.84;81.88;94299.81;5093295;28;20081;-34
2022/12/05 06:42:39;;;;;;;12.70;6.72;;;;;;;5.10;82.02;94324.31;5075568;28;20491;-34
2022/12/05 06:45:06;;;;;;;10.95;6.47;;;;;;;5.05;81.52;94328.50;5093192;28;20035;-34
2022/12/05 06:47:31;;;;;;;15.13;6.93;;;;;;;4.96;82.11;94333.47;5093382;28;20027;-34
2022/12/05 06:49:56;;;;;;;16.10;8.35;;;;;;;4.90;82.92;94338.91;5092976;28;20389;-34
2022/12/05 06:52:22;;;;;;;15.00;8.43;;;;;;;4.91;83.56;94334.94;5093228;28;20028;-34
2022/12/05 06:54:48;;;;;;;14.25;7.78;;;;;;;4.80;83.55;94331.38;5093212;28;20504;-34
2022/12/05 06:57:13;;;;;;;16.90;8.40;;;;;;;4.85;83.77;94327.94;5093066;28;20028;-34
2022/12/05 06:59:39;;;;;;;12.02;7.00;;;;;;;4.79;84.15;94327.13;5092767;28;20369;-34
2022/12/05 07:02:07;;;;;;;13.82;7.72;;;;;;;4.83;84.39;94327.69;5093103;28;20055;-34
2022/12/05 07:04:33;;;;;;;14.68;7.95;;;;;;;4.92;84.65;94335.66;5092777;28;20431;-34
2022/12/05 07:07:01;;;;;;;16.15;8.10;;;;;;;4.86;84.36;94332.16;5092682;28;20032;-34
2022/12/05 07:10:12;;;;;;;13.77;7.00;;;;;;;4.85;83.66;94325.19;5092641;28;20024;-34
2022/12/05 07:12:16;;;;;;;14.25;6.68;;;;;;;4.87;84.03;94333.66;5078311;28;20047;-34
2022/12/05 07:14:42;;;;;;;14.40;8.45;;;;;;;4.93;83.64;94331.69;5092599;28;20058;-34
2022/12/05 07:17:08;;;;;;;13.07;8.15;;;;;;;4.99;82.84;94337.94;5092755;28;20028;-34
2022/12/05 07:19:33;;;;;;;12.55;7.05;;;;;;;5.06;83.10;94342.94;5092498;28;20028;-34
2022/12/05 07:21:59;;;;;;;30.10;7.57;;;;;;;5.14;82.45;94336.53;5092482;28;20039;-34
2022/12/05 07:24:25;;;;;;;12.05;6.57;;;;;;;5.20;81.12;94329.06;5092279;28;20024;-34
2022/12/05 07:26:51;;;;;;;13.10;7.03;;;;;;;5.04;81.96;94331.75;5092380;28;20513;-34
2022/12/05 07:29:16;;;;;;;13.55;6.90;;;;;;;5.06;82.38;94332.00;5092045;28;20059;-34
2022/12/05 07:31:41;;;;;;;11.00;7.07;;;;;;;5.11;82.55;94328.56;5092304;28;20024;-34
2022/12/05 07:34:07;;;;;;;15.00;7.32;;;;;;;5.15;81.73;94340.75;5092224;28;20032;-34
2022/12/05 07:36:33;;;;;;;11.10;7.82;;;;;;;5.18;82.30;94330.78;5092391;28;20043;-34
2022/12/05 07:38:59;;;;;;;13.73;8.10;;;;;;;5.31;82.65;94331.09;5092108;28;20020;-34
2022/12/05 07:41:29;;;;;;;11.82;6.68;;;;;;;5.46;80.78;94339.84;5092405;28;20028;-34
2022/12/05 07:43:56;;;;;;;26.10;12.75;;;;;;;5.61;80.47;94343.13;5092065;28;20088;-34
2022/12/05 07:46:23;;;;;;;13.60;8.95;;;;;;;5.53;79.75;94342.13;5091970;28;20028;-34
2022/12/05 07:48:49;;;;;;;10.95;6.50;;;;;;;5.56;79.37;94349.34;5091763;28;20586;-34
2022/12/05 07:51:14;;;;;;;11.40;6.43;;;;;;;5.55;79.90;94353.31;5091927;28;20031;-34
2022/12/05 07:53:42;;;;;;;13.20;7.53;;;;;;;5.35;79.81;94335.09;5092049;28;20016;-34
2022/12/05 07:56:09;;;;;;;12.35;7.50;;;;;;;5.35;80.71;94339.81;5092084;28;20024;-34
2022/12/05 07:58:35;;;;;;;12.48;7.78;;;;;;;5.26;80.61;94345.53;5073944;28;20161;-34
2022/12/05 08:01:18;;;;;;;12.68;6.88;;;;;;;5.35;79.72;94356.25;5091690;28;20543;-34
2022/12/05 08:03:44;;;;;;;14.85;7.00;;;;;;;5.39;79.42;94340.34;5091716;28;20777;-34
2022/12/05 08:06:11;;;;;;;14.98;6.88;;;;;;;5.18;80.65;94330.78;5091549;28;20603;-34
2022/12/05 08:08:37;;;;;;;10.63;6.72;;;;;;;5.29;81.16;94339.81;5091388;28;20024;-34
2022/12/05 08:11:05;;;;;;;15.45;8.43;;;;;;;5.41;80.90;94340.59;5091461;28;20031;-34
2022/12/05 08:13:30;;;;;;;14.00;7.00;;;;;;;5.37;80.62;94332.59;5091666;28;20088;-34
2022/12/05 08:16:02;;;;;;;14.05;6.20;;;;;;;5.56;79.99;94343.88;5091420;28;20656;-34
2022/12/05 08:18:28;;;;;;;13.02;6.57;;;;;;;5.79;80.69;94336.44;5091352;28;20027;-34
2022/12/05 08:20:53;;;;;;;9.45;6.40;;;;;;;5.89;79.12;94335.72;5091255;28;20103;-34
2022/12/05 08:23:19;;;;;;;11.57;6.05;;;;;;;6.01;77.48;94331.75;5091182;28;20126;-34
2022/12/05 08:25:45;;;;;;;13.68;6.50;;;;;;;6.13;77.24;94330.50;5090942;28;20024;-34
2022/12/05 08:28:10;;;;;;;10.07;5.63;;;;;;;6.07;77.16;94329.75;5091417;28;20027;-34
2022/12/05 08:30:36;;;;;;;11.88;6.10;;;;;;;5.97;76.64;94334.00;5091102;28;20036;-34
2022/12/05 08:33:01;;;;;;;11.07;6.05;;;;;;;5.76;78.06;94324.47;5091403;28;20043;-34
2022/12/05 08:35:27;;;;;;;11.82;6.82;;;;;;;5.79;77.79;94323.47;5072939;28;20476;-34
2022/12/05 08:37:52;;;;;;;13.80;6.95;;;;;;;5.81;77.61;94325.72;5090972;28;20028;-34
2022/12/05 08:40:18;;;;;;;10.95;6.00;;;;;;;6.01;77.24;94329.03;5091208;28;20012;-34
2022/12/05 08:42:43;;;;;;;12.52;6.75;;;;;;;6.15;77.20;94323.78;5090939;28;20727;-34
2022/12/05 08:45:09;;;;;;;10.30;5.47;;;;;;;6.06;76.40;94311.81;5091155;28;20047;-34
2022/12/05 08:47:35;;;;;;;10.82;6.47;;;;;;;6.31;76.25;94329.25;5091123;28;20165;-34
2022/12/05 08:50:00;;;;;;;12.93;6.30;;;;;;;6.25;75.26;94330.50;5090831;28;20024;-34
2022/12/05 08:52:26;;;;;;;13.77;6.68;;;;;;;6.25;74.94;94325.03;5090731;28;20031;-34
2022/12/05 08:54:51;;;;;;;12.75;6.20;;;;;;;6.33;74.78;94282.88;5090722;28;20024;-34
2022/12/05 08:57:17;;;;;;;11.70;6.25;;;;;;;6.61;74.65;94313.75;5091041;28;20020;-34
2022/12/05 08:59:42;;;;;;;9.70;5.40;;;;;;;6.89;73.12;94310.94;5090197;28;20022;-34
2022/12/05 09:02:09;;;;;;;9.48;5.60;;;;;;;6.78;73.53;94313.72;5090578;28;20031;-34
2022/12/05 09:04:35;;;;;;;10.18;5.93;;;;;;;6.66;73.66;94306.75;5090544;28;20099;-34
2022/12/05 10:21:29;;;;;;;11.45;7.00;;;;;;;5.85;77.85;94288.63;5070394;28;20047;-34
2022/12/05 10:24:01;;;;;;;15.48;7.10;;;;;;;5.85;78.59;94285.16;5053949;28;20033;-34
2022/12/05 10:26:32;;;;;;;13.30;6.97;;;;;;;5.85;78.20;94280.41;5052732;28;20052;-34
2022/12/05 10:29:10;;;;;;;12.23;7.72;;;;;;;5.90;78.11;94285.16;5052174;28;20047;-34
2022/12/05 10:31:36;;;;;;;11.88;7.93;;;;;;;5.92;77.49;94288.16;5052757;28;20025;-34
2022/12/05 10:34:12;;;;;;;27.77;8.07;;;;;;;5.78;78.55;94272.66;5051583;28;20025;-34
2022/12/05 10:36:38;;;;;;;16.20;7.05;;;;;;;5.81;78.43;94277.16;5052687;28;20021;-34
2022/12/05 10:39:03;;;;;;;13.07;7.25;;;;;;;5.85;78.87;94280.41;5052192;28;20021;-34
2022/12/05 10:41:29;;;;;;;11.27;7.18;;;;;;;5.91;78.20;94269.47;5053251;28;20501;-34
2022/12/05 10:43:55;;;;;;;14.32;7.80;;;;;;;6.01;77.59;94268.72;5053340;28;20455;-34
2022/12/05 10:46:21;;;;;;;10.65;7.03;;;;;;;5.94;77.48;94261.00;5051543;28;20100;-34
2022/12/05 10:48:46;;;;;;;13.75;8.32;;;;;;;5.87;77.97;94266.97;5051688;28;20108;-34
2022/12/05 10:51:17;;;;;;;11.93;6.60;;;;;;;5.89;78.05;94256.25;5051924;28;20036;-34
2022/12/05 10:53:50;;;;;;;12.95;7.20;;;;;;;5.94;77.78;94252.75;5053040;28;20114;-34
2022/12/05 10:56:41;;;;;;;10.25;6.70;;;;;;;5.97;77.43;94262.75;5052725;28;20028;-34
2022/12/05 10:59:08;;;;;;;16.42;9.15;;;;;;;5.94;77.89;94254.75;5051569;28;20021;-34
2022/12/05 11:01:35;;;;;;;13.25;8.20;;;;;;;5.96;77.95;94250.28;5052938;28;20400;-34
2022/12/05 11:04:09;;;;;;;15.05;8.63;;;;;;;5.76;78.90;94247.75;5051746;28;20383;-34
2022/12/05 11:06:35;;;;;;;15.10;8.90;;;;;;;5.78;78.71;94245.25;5051581;28;20029;-34
2022/12/05 11:09:33;;;;;;;16.05;9.05;;;;;;;5.94;78.51;94244.53;5053004;28;20469;-34
2022/12/05 11:12:13;;;;;;;14.80;8.38;;;;;;;5.96;77.99;94250.28;5018394;28;20025;-34
2022/12/05 11:14:39;;;;;;;13.25;7.32;;;;;;;5.98;77.73;94250.53;5052403;28;20501;-34
2022/12/05 11:17:05;;;;;;;14.45;9.13;;;;;;;5.91;78.19;94247.53;5052666;28;20028;-34
2022/12/05 11:19:30;;;;;;;13.02;7.45;;;;;;;5.82;79.13;94237.56;5052594;28;20404;-34
2022/12/05 11:21:56;;;;;;;13.13;8.38;;;;;;;5.82;78.93;94236.81;5059379;28;20046;-34
2022/12/05 11:24:29;;;;;;;11.75;8.00;;;;;;;5.84;79.34;94235.09;5092317;28;20031;-34
2022/12/05 11:26:56;;;;;;;19.23;9.45;;;;;;;5.93;79.20;94237.56;5091838;28;20024;-34
2022/12/05 11:29:37;;;;;;;15.55;8.52;;;;;;;5.87;79.15;94227.84;5092711;28;20012;-34
2022/12/05 11:32:04;;;;;;;15.15;8.98;;;;;;;5.87;79.82;94234.06;5092625;28;20031;-34
2022/12/05 11:34:49;;;;;;;16.30;9.23;;;;;;;5.73;80.08;94226.09;5092186;28;20105;-34
2022/12/05 11:37:21;;;;;;;16.60;8.70;;;;;;;5.71;80.68;94218.38;5092493;28;20023;-34
2022/12/05 11:39:46;;;;;;;15.70;8.32;;;;;;;5.82;80.15;94223.09;5092233;28;20026;-34
2022/12/05 11:42:40;;;;;;;15.60;8.88;;;;;;;5.87;79.73;94216.88;5092324;28;20099;-34
2022/12/05 11:45:05;;;;;;;21.50;9.82;;;;;;;5.81;79.55;94214.13;5092079;28;20101;-34
2022/12/05 11:47:31;;;;;;;15.43;8.45;;;;;;;5.87;79.58;94214.13;5092249;28;20024;-34
2022/12/05 11:50:07;;;;;;;21.17;9.73;;;;;;;5.81;79.90;94200.44;5091881;28;20484;-34
2022/12/05 11:53:07;;;;;;;16.77;8.13;;;;;;;5.81;79.82;94202.41;5074109;28;20165;-34
2022/12/05 11:55:55;;;;;;;17.83;8.57;;;;;;;5.68;80.19;94207.66;5092126;28;20032;-34
2022/12/05 11:59:00;;;;;;;13.95;7.57;;;;;;;5.75;80.66;94202.44;5076163;28;20529;-34
2022/12/05 12:02:02;;;;;;;17.40;9.82;;;;;;;5.95;80.66;94196.72;5087208;28;20078;-34
2022/12/05 12:05:19;;;;;;;14.95;8.52;;;;;;;6.06;79.83;94193.94;5022044;28;20234;-34
2022/12/05 12:07:56;;;;;;;14.98;8.32;;;;;;;5.97;78.74;94196.97;5049432;28;20097;-34
2022/12/05 12:10:42;;;;;;;17.38;8.25;;;;;;;6.02;77.86;94207.16;5071386;28;20025;-34
2022/12/05 12:13:22;;;;;;;12.68;7.53;;;;;;;5.94;78.43;94202.69;5056294;28;20393;-34
2022/12/05 12:16:00;;;;;;;11.20;7.15;;;;;;;5.89;78.71;94195.97;5071221;28;20028;-34
2022/12/05 12:18:38;;;;;;;11.55;7.13;;;;;;;5.94;78.96;94191.72;5070222;28;20020;-34
2022/12/05 12:21:29;;;;;;;15.38;7.70;;;;;;;5.89;78.58;94178.78;5071206;28;20024;-34
2022/12/05 12:24:13;;;;;;;14.88;8.07;;;;;;;5.81;78.89;94181.25;5069898;28;20048;-34
2022/12/05 12:26:44;;;;;;;15.30;8.23;;;;;;;5.73;79.64;94172.03;5086539;28;20016;-34
2022/12/05 12:29:18;;;;;;;16.15;8.02;;;;;;;5.82;80.04;94180.00;5091100;28;20423;-34
2022/12/05 12:32:09;;;;;;;15.35;8.38;;;;;;;5.78;79.75;94170.56;5091183;28;20032;-34
2022/12/05 12:35:16;;;;;;;15.38;8.88;;;;;;;5.64;80.58;94169.56;5090269;28;20028;-34
2022/12/05 12:38:18;;;;;;;20.98;11.07;;;;;;;5.48;81.26;94175.78;4989139;28;20034;-34
2022/12/05 12:40:55;;;;;;;18.83;8.93;;;;;;;5.59;81.62;94169.56;5091247;28;20028;-34
2022/12/05 12:43:51;;;;;;;16.52;8.85;;;;;;;5.65;81.45;94160.06;5091222;28;20514;-34
2022/12/05 12:46:19;;;;;;;16.23;9.05;;;;;;;5.60;82.13;94160.09;5072765;28;20527;-34
2022/12/05 12:49:21;;;;;;;15.38;9.52;;;;;;;5.67;81.84;94157.63;5090734;28;20555;-34
2022/12/05 12:52:00;;;;;;;20.92;8.60;;;;;;;5.63;81.87;94157.09;5090794;28;20119;-34
2022/12/05 12:55:03;;;;;;;18.73;9.57;;;;;;;5.72;81.33;94154.09;5072917;28;20028;-34
2022/12/05 12:57:33;;;;;;;19.25;8.63;;;;;;;5.58;80.47;94130.47;5090677;28;20421;-34
2022/12/05 13:00:23;;;;;;;14.25;8.23;;;;;;;5.73;80.93;94169.31;5072553;28;20070;-34
2022/12/05 13:02:53;;;;;;;22.17;9.77;;;;;;;5.90;81.36;94161.09;5091074;28;20477;-34
2022/12/05 13:05:45;;;;;;;19.27;9.90;;;;;;;5.93;80.32;94155.34;5072459;28;20495;-34
2022/12/05 13:08:27;;;;;;;16.48;9.45;;;;;;;5.75;80.71;94157.84;5072923;28;20040;-34
2022/12/05 13:10:54;;;;;;;18.83;9.70;;;;;;;5.73;81.73;94152.13;5072549;28;20039;-34
2022/12/05 13:13:22;;;;;;;20.35;9.43;;;;;;;5.72;81.29;94153.34;5072350;28;20039;-34